Time;durP1;ratioP1;P1;durP2;ratioP2;P2;SDS_P1;SDS_P2;PMS_P1;PMS_P2;Temp;Humidity;BMP_temperature;BMP_pressure;BME280_temperature;BME280_humidity;BME280_pressure;Samples;Min_cycle;Max_cycle;Signal;HPM_P1;HPM_P2
2021/09/04 00:00:08;;;;;;;5.35;4.30;;;;;;;30.48;22.18;94635.47;5035560;28;20053;-50
2021/09/04 00:02:35;;;;;;;6.90;5.25;;;;;;;30.61;21.99;94642.59;5034154;28;20083;-51
2021/09/04 00:05:02;;;;;;;5.25;4.35;;;;;;;30.41;22.33;94640.94;5035996;28;20064;-55
2021/09/04 00:07:30;;;;;;;6.88;5.72;;;;;;;30.47;22.25;94634.69;5033524;28;20053;-52
2021/09/04 00:10:00;;;;;;;6.47;5.72;;;;;;;30.48;22.39;94651.66;5045462;28;20052;-50
2021/09/04 00:12:28;;;;;;;8.90;5.75;;;;;;;30.51;22.16;94651.59;5054075;28;20052;-57
2021/09/04 00:14:57;;;;;;;7.18;6.15;;;;;;;30.50;22.18;94660.84;5035763;28;20052;-51
2021/09/04 00:17:24;;;;;;;7.05;6.20;;;;;;;30.54;22.27;94650.78;5053176;28;20455;-55
2021/09/04 00:19:51;;;;;;;7.30;5.57;;;;;;;30.41;22.34;94651.72;5049832;28;20462;-54
2021/09/04 00:22:18;;;;;;;6.15;5.30;;;;;;;30.29;22.50;94653.06;5033761;28;20060;-55
2021/09/04 00:24:45;;;;;;;5.25;4.70;;;;;;;30.33;22.50;94651.06;5033390;28;20048;-50
2021/09/04 00:27:13;;;;;;;5.97;4.88;;;;;;;30.47;22.31;94661.69;5034477;28;20067;-54
2021/09/04 00:29:40;;;;;;;7.25;4.47;;;;;;;30.49;22.38;94663.97;5016226;28;20049;-53
2021/09/04 00:32:07;;;;;;;4.72;3.90;;;;;;;30.27;22.76;94663.47;5052964;28;20049;-54
2021/09/04 00:34:34;;;;;;;5.88;4.43;;;;;;;30.37;22.38;94659.88;5053083;28;20063;-55
2021/09/04 00:37:01;;;;;;;4.72;4.22;;;;;;;30.26;22.66;94660.03;5054497;28;20051;-54
2021/09/04 00:39:28;;;;;;;4.22;3.70;;;;;;;30.45;22.31;94658.63;5054994;28;20088;-54
2021/09/04 00:41:55;;;;;;;3.95;3.50;;;;;;;30.18;22.72;94650.47;5042559;28;20049;-54
2021/09/04 00:44:23;;;;;;;4.93;3.92;;;;;;;30.18;22.56;94663.19;5035898;28;20452;-59
2021/09/04 00:46:50;;;;;;;5.45;3.97;;;;;;;30.27;22.54;94652.69;5033724;28;20443;-59
2021/09/04 00:49:17;;;;;;;6.05;3.55;;;;;;;30.14;22.79;94651.69;5033608;28;20368;-59
2021/09/04 00:51:45;;;;;;;4.75;3.85;;;;;;;30.06;22.61;94649.09;5034584;28;20352;-54
2021/09/04 00:54:12;;;;;;;4.03;3.60;;;;;;;30.26;22.48;94653.88;5034904;28;20055;-57
2021/09/04 00:56:39;;;;;;;3.92;3.45;;;;;;;30.40;22.19;94650.97;5031709;28;20053;-53
2021/09/04 00:59:08;;;;;;;4.57;3.78;;;;;;;30.44;22.30;94650.91;5054980;28;20384;-53
2021/09/04 01:01:38;;;;;;;4.00;3.60;;;;;;;30.48;22.09;94638.94;5053610;28;20055;-53
2021/09/04 01:04:06;;;;;;;4.57;3.40;;;;;;;30.53;22.17;94638.47;5036036;28;20048;-53
2021/09/04 01:06:33;;;;;;;3.92;3.53;;;;;;;30.42;22.20;94637.84;5054943;28;20071;-52
2021/09/04 01:09:01;;;;;;;3.97;3.58;;;;;;;30.23;22.39;94631.19;5037347;28;20371;-53
2021/09/04 01:11:29;;;;;;;3.60;3.30;;;;;;;30.30;22.27;94625.69;5039075;28;20064;-51
2021/09/04 01:13:56;;;;;;;4.68;3.60;;;;;;;30.24;22.30;94629.25;5033202;28;20046;-57
2021/09/04 01:16:34;;;;;;;4.82;3.88;;;;;;;30.44;22.00;94619.31;5033558;28;20056;-55
2021/09/04 01:19:01;;;;;;;5.47;4.28;;;;;;;30.24;22.45;94619.22;5034942;28;20486;-54
2021/09/04 01:21:28;;;;;;;4.50;3.35;;;;;;;29.87;22.72;94609.25;5047786;28;20044;-55
2021/09/04 01:23:56;;;;;;;4.25;3.85;;;;;;;30.27;22.07;94621.09;5053942;28;20371;-52
2021/09/04 01:26:24;;;;;;;5.38;3.90;;;;;;;29.99;22.56;94616.81;5052475;28;20053;-54
2021/09/04 01:28:51;;;;;;;4.10;3.70;;;;;;;30.23;22.39;94612.31;5054602;28;20045;-55
2021/09/04 01:31:18;;;;;;;4.43;4.03;;;;;;;29.96;22.68;94606.84;5053050;28;20048;-58
2021/09/04 01:33:46;;;;;;;4.68;3.95;;;;;;;29.98;22.59;94607.22;5054123;28;20363;-54
2021/09/04 01:36:25;;;;;;;5.85;3.88;;;;;;;30.08;22.49;94603.63;5052881;28;20044;-59
2021/09/04 01:38:52;;;;;;;4.90;3.70;;;;;;;30.12;22.44;94605.50;5053934;28;20053;-57
2021/09/04 01:41:19;;;;;;;4.57;3.88;;;;;;;29.99;22.50;94603.34;5041445;28;20049;-58
2021/09/04 01:43:46;;;;;;;6.63;5.10;;;;;;;29.96;22.51;94595.31;5032716;28;20053;-55
2021/09/04 01:46:13;;;;;;;7.60;5.60;;;;;;;29.78;22.63;94596.28;5033959;28;20060;-53
2021/09/04 01:48:40;;;;;;;5.97;4.47;;;;;;;30.00;22.33;94599.47;5032551;28;20048;-58
2021/09/04 01:51:07;;;;;;;7.57;4.78;;;;;;;29.96;22.27;94606.84;5043351;28;20063;-54
2021/09/04 01:53:34;;;;;;;8.23;5.20;;;;;;;29.76;22.85;94609.41;5054302;28;20045;-59
2021/09/04 01:56:01;;;;;;;5.50;5.00;;;;;;;29.77;22.65;94604.78;5052261;28;20056;-60
2021/09/04 01:58:28;;;;;;;7.60;5.30;;;;;;;29.84;22.49;94604.69;5053172;28;20052;-55
2021/09/04 02:00:55;;;;;;;6.38;5.10;;;;;;;29.78;22.67;94611.69;5052947;28;20041;-56
2021/09/04 02:03:22;;;;;;;5.63;5.13;;;;;;;29.72;22.62;94607.91;5053313;28;20064;-59
2021/09/04 02:05:49;;;;;;;6.63;4.95;;;;;;;29.77;22.68;94594.00;5053140;28;20041;-60
2021/09/04 02:08:16;;;;;;;8.05;5.10;;;;;;;29.87;22.28;94595.78;5053459;28;20363;-59
2021/09/04 02:10:43;;;;;;;5.65;5.07;;;;;;;29.86;22.55;94594.25;5046161;28;20068;-52
2021/09/04 02:13:10;;;;;;;5.70;5.00;;;;;;;29.90;22.51;94603.06;5032685;28;20452;-54
2021/09/04 02:15:37;;;;;;;7.93;4.90;;;;;;;29.90;22.33;94591.50;5031764;28;20491;-52
2021/09/04 02:18:05;;;;;;;5.50;4.95;;;;;;;29.80;22.56;94598.56;5033104;28;20084;-50
2021/09/04 02:20:32;;;;;;;6.10;4.93;;;;;;;29.46;22.84;94593.19;5033464;28;20053;-51
2021/09/04 02:22:59;;;;;;;6.13;5.05;;;;;;;29.79;22.51;94588.97;5030232;28;20053;-52
2021/09/04 02:25:26;;;;;;;6.47;5.07;;;;;;;29.54;22.85;94583.09;5037673;28;20064;-52
2021/09/04 02:27:53;;;;;;;7.40;5.10;;;;;;;29.52;22.84;94582.75;5052660;28;20049;-52
2021/09/04 02:30:21;;;;;;;7.97;5.00;;;;;;;29.61;22.58;94583.00;5049987;28;20047;-51
2021/09/04 02:32:48;;;;;;;8.45;5.07;;;;;;;29.54;22.78;94580.41;5032606;28;20460;-52
2021/09/04 02:35:15;;;;;;;6.47;5.10;;;;;;;29.46;22.96;94574.34;5032849;28;20049;-52
2021/09/04 02:37:43;;;;;;;6.97;5.18;;;;;;;29.47;22.89;94575.88;5033325;28;20064;-54
2021/09/04 02:40:11;;;;;;;7.25;4.53;;;;;;;29.53;22.63;94573.50;5031920;28;20046;-52
2021/09/04 02:42:38;;;;;;;7.50;4.55;;;;;;;29.59;22.79;94579.97;5025473;28;20052;-51
2021/09/04 02:45:06;;;;;;;8.23;4.88;;;;;;;29.62;22.56;94571.84;5050880;28;20059;-52
2021/09/04 02:47:35;;;;;;;5.30;4.55;;;;;;;29.84;22.72;94566.94;5050090;28;20384;-53
2021/09/04 02:50:06;;;;;;;7.95;4.85;;;;;;;29.52;23.02;94564.66;5051275;28;20053;-52
2021/09/04 02:52:33;;;;;;;5.55;4.70;;;;;;;29.58;22.66;94565.72;5033150;28;20037;-55
2021/09/04 02:55:00;;;;;;;6.18;4.50;;;;;;;29.53;22.46;94562.72;5033800;28;20057;-52
2021/09/04 02:57:28;;;;;;;6.35;4.50;;;;;;;29.53;22.69;94573.50;5051197;28;20053;-53
2021/09/04 02:59:57;;;;;;;6.40;4.70;;;;;;;29.51;22.56;94567.75;5053638;28;20044;-51
2021/09/04 03:02:24;;;;;;;6.40;4.60;;;;;;;29.39;23.01;94569.75;5034176;28;20376;-52
2021/09/04 03:04:53;;;;;;;6.22;4.78;;;;;;;29.56;22.49;94578.06;5033037;28;20064;-56
2021/09/04 03:07:21;;;;;;;9.98;4.75;;;;;;;29.31;22.87;94573.69;5033742;28;20060;-54
2021/09/04 03:09:48;;;;;;;8.32;4.65;;;;;;;29.27;22.76;94566.81;5032875;28;20083;-56
2021/09/04 03:12:18;;;;;;;8.75;5.32;;;;;;;29.25;23.02;94569.91;5049665;28;20045;-52
2021/09/04 03:14:45;;;;;;;7.10;4.55;;;;;;;29.32;22.94;94559.06;5052797;28;20059;-53
2021/09/04 03:17:13;;;;;;;7.18;4.45;;;;;;;29.15;22.89;94558.09;5051498;28;20487;-50
2021/09/04 03:19:41;;;;;;;6.60;5.10;;;;;;;29.22;22.85;94565.34;5052720;28;20056;-51
2021/09/04 03:22:08;;;;;;;5.10;4.20;;;;;;;29.37;22.82;94561.31;5036456;28;20042;-54
2021/09/04 03:24:36;;;;;;;8.00;4.18;;;;;;;29.35;22.79;94563.66;5032750;28;20481;-53
2021/09/04 03:27:04;;;;;;;5.63;4.28;;;;;;;29.20;23.04;94575.75;5051088;28;20069;-54
2021/09/04 03:29:32;;;;;;;5.30;4.38;;;;;;;29.26;22.58;94568.75;5055528;28;20063;-52
2021/09/04 03:31:59;;;;;;;5.88;4.30;;;;;;;29.37;22.81;94577.47;5055159;28;20663;-55
2021/09/04 03:34:27;;;;;;;12.73;4.60;;;;;;;29.22;22.74;94576.09;5038293;28;20061;-54
2021/09/04 03:36:55;;;;;;;5.13;4.35;;;;;;;29.48;22.58;94587.41;5056160;28;20083;-53
2021/09/04 03:39:22;;;;;;;4.82;4.32;;;;;;;29.36;22.75;94575.94;5056408;28;20055;-57
2021/09/04 03:41:49;;;;;;;6.72;4.40;;;;;;;29.27;22.66;94561.44;5056184;28;20053;-58
2021/09/04 03:44:17;;;;;;;8.30;4.63;;;;;;;29.36;22.62;94575.94;5055359;28;20045;-57
2021/09/04 03:46:45;;;;;;;5.10;4.13;;;;;;;29.33;22.51;94582.13;5053944;28;20056;-53
2021/09/04 03:49:13;;;;;;;5.93;4.53;;;;;;;29.08;22.76;94592.38;5056670;28;20040;-55
2021/09/04 03:51:42;;;;;;;7.55;4.40;;;;;;;29.24;22.66;94583.78;5054586;28;20056;-55
2021/09/04 03:54:10;;;;;;;6.35;4.70;;;;;;;29.05;22.87;94585.09;5055225;28;20048;-59
2021/09/04 03:56:37;;;;;;;6.63;4.90;;;;;;;29.24;22.49;94579.16;5038204;28;20053;-59
2021/09/04 03:59:04;;;;;;;6.85;4.57;;;;;;;29.02;22.98;94577.84;5035666;28;20064;-53
2021/09/04 04:01:33;;;;;;;7.70;4.38;;;;;;;29.07;22.74;94558.56;5054802;28;20056;-57
2021/09/04 04:04:02;;;;;;;6.93;4.82;;;;;;;29.03;22.89;94568.59;5055739;28;20067;-60
2021/09/04 04:06:29;;;;;;;5.57;3.83;;;;;;;28.81;23.18;94568.75;5055100;28;20044;-60
2021/09/04 04:08:56;;;;;;;4.97;4.20;;;;;;;28.94;22.95;94571.00;5056434;28;20049;-56
2021/09/04 04:11:25;;;;;;;5.28;4.20;;;;;;;28.90;22.95;94565.66;5055131;28;20394;-59
2021/09/04 04:13:53;;;;;;;6.45;4.20;;;;;;;28.88;22.81;94565.25;5055376;28;20385;-57
2021/09/04 04:16:20;;;;;;;5.80;4.28;;;;;;;28.98;22.71;94571.72;5054844;28;20446;-52
2021/09/04 04:18:47;;;;;;;6.50;4.30;;;;;;;28.91;22.90;94561.03;5054350;28;20053;-56
2021/09/04 04:21:14;;;;;;;6.65;4.70;;;;;;;28.94;23.24;94579.06;5046762;28;20045;-54
2021/09/04 04:23:43;;;;;;;7.07;4.22;;;;;;;28.82;23.50;94586.44;5034147;28;20459;-52
2021/09/04 04:26:10;;;;;;;5.15;4.13;;;;;;;28.76;23.43;94587.25;5045280;28;20060;-53
2021/09/04 04:28:39;;;;;;;6.80;4.35;;;;;;;29.04;23.19;94597.03;5054928;28;20053;-53
2021/09/04 04:31:07;;;;;;;6.15;4.57;;;;;;;29.01;23.37;94597.84;5054301;28;20056;-51
2021/09/04 04:33:34;;;;;;;9.10;5.30;;;;;;;28.77;23.94;94592.25;5053794;28;20053;-71
2021/09/04 04:36:02;;;;;;;8.15;5.72;;;;;;;30.72;21.88;94596.59;5051585;28;20383;-60
2021/09/04 04:38:30;;;;;;;10.25;5.07;;;;;;;32.08;20.21;94616.56;5052137;28;20060;-50
2021/09/04 04:40:57;;;;;;;5.80;4.57;;;;;;;33.04;19.09;94598.91;5053542;28;20053;-51
2021/09/04 04:43:25;;;;;;;9.95;4.47;;;;;;;33.83;18.92;94603.13;5040635;28;20056;-56
2021/09/04 04:45:52;;;;;;;6.03;3.95;;;;;;;34.42;17.92;94609.19;5055148;28;20128;-42
2021/09/04 04:48:20;;;;;;;7.32;4.18;;;;;;;33.72;18.24;94602.59;5055762;28;20371;-44
2021/09/04 04:50:48;;;;;;;4.60;3.75;;;;;;;33.40;18.72;94603.47;5042273;28;20057;-43
2021/09/04 04:53:17;;;;;;;5.18;3.90;;;;;;;33.05;18.90;94600.47;5033520;28;20056;-43
2021/09/04 04:55:45;;;;;;;6.57;3.97;;;;;;;32.87;19.83;94610.97;5042227;28;20057;-43
2021/09/04 04:58:16;;;;;;;4.68;3.58;;;;;;;32.64;19.55;94613.81;5051098;28;20439;-43
2021/09/04 05:00:44;;;;;;;4.00;3.60;;;;;;;32.41;19.93;94612.75;5046772;28;20391;-44
2021/09/04 05:03:14;;;;;;;4.40;3.65;;;;;;;32.35;19.63;94614.44;5034764;28;20037;-44
2021/09/04 05:05:41;;;;;;;5.28;3.50;;;;;;;32.17;19.74;94608.63;5053326;28;20052;-49
2021/09/04 05:08:10;;;;;;;6.38;4.00;;;;;;;32.02;20.05;94602.78;5054422;28;20053;-50
2021/09/04 05:10:38;;;;;;;5.15;3.85;;;;;;;32.05;19.85;94606.56;5046639;28;20052;-57
2021/09/04 05:13:06;;;;;;;4.90;4.13;;;;;;;32.05;20.29;94611.97;5053716;28;20048;-43
2021/09/04 05:15:34;;;;;;;7.22;4.15;;;;;;;32.28;19.80;94603.03;5049946;28;20063;-43
2021/09/04 05:18:02;;;;;;;5.88;4.15;;;;;;;32.21;19.93;94603.91;5045511;28;20055;-43
2021/09/04 05:20:29;;;;;;;6.40;4.10;;;;;;;32.33;20.03;94600.59;5052859;28;20052;-43
2021/09/04 05:22:57;;;;;;;6.25;4.03;;;;;;;32.26;20.06;94611.53;5053296;28;20060;-43
2021/09/04 05:25:26;;;;;;;5.93;4.03;;;;;;;32.52;19.78;94617.91;5047695;28;20053;-42
2021/09/04 05:27:54;;;;;;;9.35;4.05;;;;;;;32.47;20.22;94605.66;5053203;28;20063;-42
2021/09/04 05:30:21;;;;;;;6.00;3.60;;;;;;;32.65;19.55;94615.31;5054284;28;20044;-44
2021/09/04 05:32:48;;;;;;;5.22;4.00;;;;;;;32.78;19.67;94618.88;5052957;28;20060;-50
2021/09/04 05:35:15;;;;;;;5.32;4.35;;;;;;;32.92;19.75;94624.00;5054545;28;20052;-43
2021/09/04 05:37:42;;;;;;;5.70;4.35;;;;;;;33.00;19.64;94629.97;5054069;28;20052;-42
2021/09/04 05:40:10;;;;;;;6.28;5.28;;;;;;;33.17;19.26;94617.97;5042369;28;20053;-50
2021/09/04 05:42:37;;;;;;;9.60;4.30;;;;;;;33.53;18.80;94612.41;5035422;28;20041;-63
2021/09/04 05:45:06;;;;;;;10.55;4.70;;;;;;;33.37;19.28;94612.47;5053803;28;20056;-46
2021/09/04 05:47:33;;;;;;;5.35;4.55;;;;;;;33.42;19.21;94606.50;5054449;28;20048;-59
2021/09/04 05:50:02;;;;;;;5.63;4.35;;;;;;;33.48;19.15;94606.75;5054821;28;20056;-64
2021/09/04 05:52:31;;;;;;;4.45;4.05;;;;;;;32.74;19.57;94616.25;5055217;28;20051;-50
2021/09/04 05:54:58;;;;;;;9.25;4.38;;;;;;;32.07;20.41;94620.44;5052432;28;20359;-61
2021/09/04 05:57:25;;;;;;;5.10;4.20;;;;;;;32.06;20.34;94627.03;5051992;28;20049;-61
2021/09/04 05:59:52;;;;;;;5.53;4.95;;;;;;;31.66;20.76;94621.59;5044113;28;20503;-63
2021/09/04 06:02:19;;;;;;;5.70;4.55;;;;;;;31.79;20.83;94621.78;5034430;28;20049;-58
2021/09/04 06:04:46;;;;;;;6.90;4.70;;;;;;;31.82;20.38;94621.69;5034491;28;20057;-60
2021/09/04 06:07:13;;;;;;;5.65;5.03;;;;;;;31.67;20.95;94611.53;5049235;28;20044;-59
2021/09/04 06:09:40;;;;;;;6.72;4.13;;;;;;;31.94;20.91;94614.13;5053140;28;20052;-63
2021/09/04 06:12:07;;;;;;;6.38;4.30;;;;;;;32.38;20.39;94618.25;5053952;28;20053;-63
2021/09/04 06:14:34;;;;;;;5.35;4.78;;;;;;;31.58;21.02;94618.28;5054892;28;20049;-62
2021/09/04 06:17:01;;;;;;;8.20;5.38;;;;;;;31.98;20.87;94622.91;5040097;28;20060;-64
2021/09/04 06:19:28;;;;;;;6.53;4.75;;;;;;;32.02;20.68;94629.03;5034577;28;20049;-64
2021/09/04 06:21:55;;;;;;;5.65;4.53;;;;;;;32.07;20.71;94625.84;5033908;28;20449;-62
2021/09/04 06:24:22;;;;;;;7.57;4.50;;;;;;;32.22;20.30;94627.81;5034859;28;20042;-57
2021/09/04 06:26:49;;;;;;;8.70;5.35;;;;;;;32.22;20.31;94622.41;5050156;28;20060;-55
2021/09/04 06:29:16;;;;;;;9.05;5.05;;;;;;;32.45;20.29;94616.16;5052306;28;20071;-55
2021/09/04 06:31:44;;;;;;;5.05;4.50;;;;;;;32.91;20.27;94619.00;5054068;28;20060;-60
2021/09/04 06:34:11;;;;;;;6.97;4.70;;;;;;;32.79;20.30;94609.59;5073358;28;20052;-53
2021/09/04 06:36:38;;;;;;;7.13;4.75;;;;;;;33.19;19.50;94604.00;5063564;28;20053;-58
2021/09/04 06:39:05;;;;;;;5.90;4.80;;;;;;;33.38;19.32;94605.84;5053092;28;20049;-54
2021/09/04 06:41:32;;;;;;;5.45;4.85;;;;;;;33.31;19.58;94597.84;5053735;28;20053;-56
2021/09/04 06:43:59;;;;;;;5.28;4.60;;;;;;;33.34;19.26;94605.19;5054285;28;20111;-55
2021/09/04 06:46:26;;;;;;;6.18;4.90;;;;;;;33.75;18.82;94614.53;5045635;28;20061;-51
2021/09/04 06:48:53;;;;;;;6.10;4.72;;;;;;;34.03;18.75;94611.06;5035316;28;20046;-52
2021/09/04 06:51:20;;;;;;;9.13;4.97;;;;;;;34.20;18.45;94604.38;5034408;28;20670;-55
2021/09/04 06:53:47;;;;;;;5.45;4.18;;;;;;;33.98;18.78;94620.50;5033807;28;20053;-54
2021/09/04 06:56:15;;;;;;;7.60;4.50;;;;;;;34.33;18.56;94629.53;5039027;28;20075;-53
2021/09/04 06:58:42;;;;;;;4.57;4.15;;;;;;;34.15;18.61;94621.19;5054037;28;20041;-53
2021/09/04 07:01:09;;;;;;;5.82;4.63;;;;;;;34.62;18.38;94617.88;5045575;28;20055;-53
2021/09/04 07:03:36;;;;;;;5.88;5.28;;;;;;;34.96;17.96;94608.31;5057986;28;20045;-53
2021/09/04 07:06:04;;;;;;;5.13;4.63;;;;;;;35.03;17.63;94610.78;5057370;28;20455;-54
2021/09/04 07:08:31;;;;;;;6.28;4.75;;;;;;;35.49;17.39;94612.75;5058380;28;20060;-54
2021/09/04 07:10:58;;;;;;;6.05;4.50;;;;;;;35.70;17.00;94602.31;5056823;28;20056;-54
2021/09/04 07:13:25;;;;;;;5.93;4.60;;;;;;;35.71;16.87;94601.13;5056755;28;20053;-53
2021/09/04 07:15:52;;;;;;;5.18;4.25;;;;;;;35.95;16.87;94599.50;5052522;28;20041;-52
2021/09/04 07:18:23;;;;;;;6.85;4.78;;;;;;;35.65;17.01;94600.16;5038263;28;20494;-54
2021/09/04 07:20:51;;;;;;;6.40;4.72;;;;;;;35.69;16.80;94598.09;5037590;28;20052;-56
2021/09/04 07:23:18;;;;;;;6.53;4.88;;;;;;;36.34;16.54;94591.84;5037951;28;20065;-54
2021/09/04 07:25:45;;;;;;;4.85;4.10;;;;;;;36.70;16.15;94600.16;5041618;28;20387;-54
2021/09/04 07:28:13;;;;;;;5.97;4.63;;;;;;;37.29;15.88;94598.19;5058432;28;20383;-51
2021/09/04 07:30:40;;;;;;;6.28;5.18;;;;;;;36.87;16.43;94599.91;5057541;28;20353;-53
2021/09/04 07:33:07;;;;;;;7.32;5.25;;;;;;;37.71;15.44;94599.53;5057470;28;20049;-54
2021/09/04 07:35:35;;;;;;;6.65;5.20;;;;;;;37.32;15.52;94600.03;5057447;28;20057;-51
2021/09/04 07:38:02;;;;;;;6.35;5.13;;;;;;;37.74;14.83;94602.16;5057537;28;20056;-53
2021/09/04 07:40:29;;;;;;;7.43;5.45;;;;;;;37.85;14.95;94609.88;5057464;28;20045;-54
2021/09/04 07:42:56;;;;;;;13.48;6.93;;;;;;;38.63;14.99;94611.06;5057359;28;20059;-55
2021/09/04 07:45:23;;;;;;;12.82;5.35;;;;;;;38.12;15.48;94614.50;5057715;28;20361;-56
2021/09/04 07:47:50;;;;;;;7.80;4.90;;;;;;;38.39;15.45;94619.91;5057257;28;20053;-52
2021/09/04 07:50:17;;;;;;;7.80;5.28;;;;;;;38.99;14.17;94615.56;5057440;28;20040;-53
2021/09/04 07:52:45;;;;;;;7.07;5.38;;;;;;;38.76;14.57;94612.34;5056289;28;20056;-55
2021/09/04 07:55:12;;;;;;;7.72;5.25;;;;;;;38.11;14.61;94616.50;5054054;28;20053;-53
2021/09/04 07:57:39;;;;;;;7.15;5.22;;;;;;;37.38;15.57;94613.03;5037079;28;20068;-55
2021/09/04 08:00:07;;;;;;;7.53;5.38;;;;;;;36.80;16.04;94611.09;5037175;28;20057;-54
2021/09/04 08:02:39;;;;;;;11.05;5.20;;;;;;;36.86;16.20;94620.19;5037322;28;20049;-55
2021/09/04 08:05:09;;;;;;;7.78;5.05;;;;;;;36.48;16.11;94615.06;5037221;28;20060;-58
2021/09/04 08:07:37;;;;;;;12.20;8.57;;;;;;;37.28;15.63;94623.19;5050979;28;20065;-55
2021/09/04 08:10:05;;;;;;;16.92;11.98;;;;;;;37.79;15.44;94612.47;5049668;28;20042;-56
2021/09/04 08:12:32;;;;;;;14.57;11.38;;;;;;;37.14;15.80;94623.72;5037130;28;20619;-57
2021/09/04 08:15:02;;;;;;;14.65;11.77;;;;;;;37.65;15.33;94623.94;5037048;28;20048;-59
2021/09/04 08:17:29;;;;;;;14.82;11.45;;;;;;;37.15;16.20;94619.78;5036715;28;20080;-57
2021/09/04 08:19:56;;;;;;;7.50;6.72;;;;;;;37.06;16.05;94626.00;5036005;28;20457;-53
2021/09/04 08:22:23;;;;;;;6.78;5.82;;;;;;;37.49;15.52;94637.91;5036622;28;20060;-52
2021/09/04 08:24:50;;;;;;;8.77;5.43;;;;;;;36.92;16.23;94629.28;5036850;28;20061;-53
2021/09/04 08:27:17;;;;;;;11.52;5.90;;;;;;;37.16;15.82;94622.06;5047796;28;20067;-51
2021/09/04 08:29:44;;;;;;;6.40;5.30;;;;;;;37.58;15.18;94621.53;5056653;28;20055;-59
2021/09/04 08:32:11;;;;;;;7.70;4.72;;;;;;;37.18;15.90;94625.09;5055910;28;20055;-52
2021/09/04 08:34:38;;;;;;;5.80;4.80;;;;;;;37.38;15.78;94618.50;5056730;28;20060;-55
2021/09/04 08:37:05;;;;;;;7.22;5.20;;;;;;;37.14;16.04;94613.59;5047051;28;20049;-53
2021/09/04 08:39:33;;;;;;;5.75;4.80;;;;;;;37.46;15.64;94619.69;5036518;28;20464;-55
2021/09/04 08:42:00;;;;;;;5.65;5.15;;;;;;;37.65;15.56;94632.13;5036556;28;20056;-53
2021/09/04 08:44:27;;;;;;;6.53;4.72;;;;;;;37.57;14.98;94628.19;5036708;28;20490;-53
2021/09/04 08:46:54;;;;;;;7.43;5.18;;;;;;;37.72;15.51;94629.13;5043686;28;20150;-53
2021/09/04 08:49:21;;;;;;;5.80;5.15;;;;;;;37.93;15.01;94622.72;5037433;28;20052;-53
2021/09/04 08:51:48;;;;;;;6.57;5.05;;;;;;;37.71;15.04;94616.69;5035436;28;20052;-53
2021/09/04 08:54:16;;;;;;;5.10;4.57;;;;;;;37.93;15.53;94620.00;5036486;28;20049;-52
2021/09/04 08:56:43;;;;;;;6.60;4.70;;;;;;;37.97;15.08;94617.88;5040707;28;20044;-52
2021/09/04 08:59:10;;;;;;;5.68;4.65;;;;;;;37.83;16.07;94623.97;5056043;28;20063;-54
2021/09/04 09:01:44;;;;;;;9.27;7.72;;;;;;;37.88;15.19;94623.34;5054996;28;20051;-52
2021/09/04 09:04:15;;;;;;;6.82;5.30;;;;;;;37.63;15.26;94613.50;5056141;28;20049;-57
2021/09/04 09:06:43;;;;;;;9.00;6.65;;;;;;;37.54;15.01;94612.75;5055934;28;20049;-56
2021/09/04 09:09:25;;;;;;;9.20;8.30;;;;;;;37.51;14.87;94608.97;5054947;28;20044;-59
2021/09/04 09:11:53;;;;;;;8.93;8.00;;;;;;;37.32;15.54;94608.19;5056009;28;20060;-59
2021/09/04 09:14:21;;;;;;;6.00;5.07;;;;;;;37.35;15.39;94612.75;5054847;28;20040;-59
2021/09/04 09:16:54;;;;;;;6.00;5.20;;;;;;;37.62;15.47;94611.22;5048945;28;20050;-59
2021/09/04 09:19:29;;;;;;;5.90;5.13;;;;;;;37.75;15.12;94605.66;5035965;28;20326;-53
2021/09/04 09:21:57;;;;;;;15.30;9.93;;;;;;;38.24;15.02;94602.66;5017385;28;20057;-59
2021/09/04 09:24:25;;;;;;;6.97;5.43;;;;;;;37.71;15.51;94592.16;5035329;28;20045;-58
2021/09/04 09:26:55;;;;;;;6.88;4.60;;;;;;;37.76;15.27;94591.56;5051748;28;20080;-59
2021/09/04 09:29:32;;;;;;;4.82;4.43;;;;;;;37.66;15.82;94592.72;5055793;28;20383;-57
2021/09/04 09:32:04;;;;;;;5.93;3.88;;;;;;;37.84;15.14;94590.03;5055687;28;20404;-59
2021/09/04 09:34:36;;;;;;;7.00;4.22;;;;;;;37.92;15.03;94583.03;5055594;28;20448;-57
2021/09/04 09:37:04;;;;;;;4.30;3.90;;;;;;;37.94;14.47;94580.59;5048012;28;20049;-59
2021/09/04 09:39:37;;;;;;;4.38;3.40;;;;;;;37.93;15.23;94568.16;5035377;28;20053;-53
2021/09/04 09:42:06;;;;;;;5.35;3.88;;;;;;;37.78;14.84;94578.22;5034994;28;20061;-54
2021/09/04 09:44:35;;;;;;;5.35;3.70;;;;;;;37.63;14.94;94566.38;5034983;28;20080;-54
2021/09/04 09:47:06;;;;;;;3.80;3.47;;;;;;;38.03;14.39;94565.44;5041786;28;20079;-53
2021/09/04 09:49:38;;;;;;;5.82;3.33;;;;;;;38.21;14.48;94554.47;5053877;28;20037;-53
2021/09/04 09:52:10;;;;;;;3.90;3.47;;;;;;;38.22;14.25;94551.28;5054208;28;20057;-53
2021/09/04 09:54:38;;;;;;;6.43;3.80;;;;;;;38.16;14.61;94546.88;5055222;28;20379;-51
2021/09/04 09:57:09;;;;;;;4.60;3.53;;;;;;;38.05;14.61;94539.19;5053101;28;20064;-57
2021/09/04 09:59:39;;;;;;;4.07;3.40;;;;;;;38.01;14.92;94540.59;5054521;28;20359;-53
2021/09/04 10:02:09;;;;;;;10.50;4.60;;;;;;;38.42;13.86;94541.78;5037456;28;20053;-52
2021/09/04 10:04:37;;;;;;;7.32;3.78;;;;;;;38.21;14.62;94544.31;5054227;28;20069;-52
2021/09/04 10:07:06;;;;;;;5.03;3.80;;;;;;;38.31;14.83;94541.56;5054230;28;20068;-54
2021/09/04 10:09:35;;;;;;;5.53;3.70;;;;;;;38.11;14.55;94533.88;5055085;28;20045;-53
2021/09/04 10:12:03;;;;;;;7.40;3.88;;;;;;;38.26;14.56;94540.22;5054622;28;20490;-53
2021/09/04 10:14:31;;;;;;;12.45;4.15;;;;;;;38.43;14.81;94549.53;5054960;28;20045;-53
2021/09/04 10:17:03;;;;;;;5.07;3.40;;;;;;;38.47;14.21;94536.44;5048381;28;20364;-54
2021/09/04 10:19:32;;;;;;;4.32;3.78;;;;;;;38.50;14.26;94540.97;5030033;28;20056;-53
2021/09/04 10:22:01;;;;;;;4.93;3.40;;;;;;;38.48;13.77;94537.22;5033341;28;20076;-53
2021/09/04 10:24:50;;;;;;;4.28;3.88;;;;;;;38.62;13.66;94522.13;5035022;28;20079;-57
2021/09/04 10:27:33;;;;;;;6.03;3.83;;;;;;;38.66;14.26;94523.50;5034219;28;20057;-52
2021/09/04 10:30:28;;;;;;;5.50;3.53;;;;;;;38.49;13.54;94523.09;5033483;28;20046;-55
2021/09/04 10:32:59;;;;;;;4.07;3.67;;;;;;;38.50;13.77;94527.34;5034036;28;20053;-54
2021/09/04 10:35:49;;;;;;;4.32;3.92;;;;;;;38.28;13.87;94515.94;5032956;28;20065;-54
2021/09/04 10:38:19;;;;;;;4.30;3.63;;;;;;;38.30;13.93;94510.78;5049171;28;20052;-54
2021/09/04 10:40:50;;;;;;;4.50;3.47;;;;;;;38.27;14.41;94503.50;5053469;28;20048;-55
2021/09/04 10:43:20;;;;;;;4.28;3.45;;;;;;;38.30;14.42;94502.59;5054433;28;20057;-53
2021/09/04 10:45:50;;;;;;;7.63;4.20;;;;;;;38.32;13.84;94505.59;5054453;28;20049;-56
2021/09/04 10:48:21;;;;;;;5.80;3.30;;;;;;;38.22;13.92;94501.41;5053500;28;20044;-58
2021/09/04 10:51:08;;;;;;;4.40;3.60;;;;;;;38.51;13.73;94504.28;5053333;28;20359;-54
2021/09/04 10:53:46;;;;;;;7.45;4.22;;;;;;;38.48;14.35;94502.47;5053304;28;20057;-54
2021/09/04 10:56:19;;;;;;;4.53;3.80;;;;;;;38.27;14.34;94503.50;5036275;28;20041;-53
2021/09/04 10:58:46;;;;;;;4.32;3.05;;;;;;;38.35;13.69;94504.69;5035401;28;20057;-54
2021/09/04 11:01:27;;;;;;;4.20;3.80;;;;;;;38.32;13.93;94499.41;5033504;28;20060;-51
2021/09/04 11:03:55;;;;;;;6.65;6.05;;;;;;;38.33;14.21;94504.38;5034311;28;20049;-55
2021/09/04 11:06:24;;;;;;;13.82;12.15;;;;;;;38.01;14.30;94499.66;5034312;28;20053;-54
2021/09/04 11:08:52;;;;;;;29.48;26.38;;;;;;;38.12;13.87;94502.63;5033584;28;20060;-53
2021/09/04 11:11:26;;;;;;;9.45;7.20;;;;;;;37.93;14.46;94499.97;5032433;28;20042;-53
2021/09/04 11:13:57;;;;;;;5.90;5.00;;;;;;;38.17;14.04;94504.75;5034221;28;20361;-52
2021/09/04 11:16:24;;;;;;;;;;;;;;;38.29;14.28;94501.06;5034862;28;20048;-54
2021/09/04 11:18:52;;;;;;;5.15;4.22;;;;;;;38.19;14.19;94494.88;5051963;28;19913;-52
2021/09/04 11:21:19;;;;;;;4.45;4.03;;;;;;;38.22;13.95;94491.22;5047488;28;20050;-55
2021/09/04 11:23:49;;;;;;;4.47;4.07;;;;;;;38.25;14.13;94495.00;5034131;28;20372;-55
2021/09/04 11:26:16;;;;;;;4.20;3.80;;;;;;;38.42;13.66;94503.56;5045080;28;20056;-53
2021/09/04 11:28:45;;;;;;;5.18;3.95;;;;;;;38.36;13.46;94489.06;5053766;28;20531;-52
2021/09/04 11:31:17;;;;;;;4.40;3.78;;;;;;;38.10;13.68;94499.59;5032683;28;20049;-51
2021/09/04 11:33:50;;;;;;;4.57;3.78;;;;;;;38.37;13.73;94501.47;5034030;28;20060;-52
2021/09/04 11:36:37;;;;;;;5.70;4.00;;;;;;;38.31;13.41;94504.09;5033892;28;20045;-52
2021/09/04 11:39:05;;;;;;;4.65;3.65;;;;;;;37.89;13.63;94496.66;5033808;28;20064;-54